sensor_id;sensor_type;location;lat;lon;timestamp;pressure;altitude;pressure_sealevel;temperature;humidity
59757;BME280;45631;51.962;5.974;2023-02-12T00:01:37;103669.34;;;6.24;100.00
59757;BME280;45631;51.962;5.974;2023-02-12T00:04:05;103678.94;;;6.23;100.00
59757;BME280;45631;51.962;5.974;2023-02-12T00:06:33;103676.34;;;6.23;100.00
59757;BME280;45631;51.962;5.974;2023-02-12T00:09:01;103667.59;;;6.23;100.00
59757;BME280;45631;51.962;5.974;2023-02-12T00:11:30;103672.84;;;6.20;100.00
59757;BME280;45631;51.962;5.974;2023-02-12T00:13:58;103665.00;;;6.21;100.00
59757;BME280;45631;51.962;5.974;2023-02-12T00:16:28;103672.84;;;6.20;100.00
59757;BME280;45631;51.962;5.974;2023-02-12T00:18:57;103668.50;;;6.16;100.00
59757;BME280;45631;51.962;5.974;2023-02-12T00:21:26;103672.88;;;6.15;100.00
59757;BME280;45631;51.962;5.974;2023-02-12T00:23:55;103665.88;;;6.16;100.00
59757;BME280;45631;51.962;5.974;2023-02-12T00:26:23;103657.19;;;6.18;100.00
59757;BME280;45631;51.962;5.974;2023-02-12T00:28:52;103660.66;;;6.19;100.00
59757;BME280;45631;51.962;5.974;2023-02-12T00:31:22;103666.75;;;6.19;100.00
59757;BME280;45631;51.962;5.974;2023-02-12T00:33:52;103664.16;;;6.16;100.00
59757;BME280;45631;51.962;5.974;2023-02-12T00:36:22;103664.13;;;6.13;100.00
59757;BME280;45631;51.962;5.974;2023-02-12T00:38:51;103660.69;;;6.11;100.00
59757;BME280;45631;51.962;5.974;2023-02-12T00:41:20;103665.91;;;6.05;100.00
59757;BME280;45631;51.962;5.974;2023-02-12T00:43:48;103669.38;;;6.01;100.00
59757;BME280;45631;51.962;5.974;2023-02-12T00:46:17;103670.25;;;5.98;100.00
59757;BME280;45631;51.962;5.974;2023-02-12T00:48:45;103661.53;;;5.96;100.00
59757;BME280;45631;51.962;5.974;2023-02-12T00:51:15;103667.63;;;5.92;100.00
59757;BME280;45631;51.962;5.974;2023-02-12T00:53:43;103665.88;;;5.85;100.00
59757;BME280;45631;51.962;5.974;2023-02-12T00:56:11;103673.72;;;5.82;100.00
59757;BME280;45631;51.962;5.974;2023-02-12T00:58:39;103667.63;;;5.81;100.00
59757;BME280;45631;51.962;5.974;2023-02-12T01:01:07;103664.13;;;5.81;100.00
59757;BME280;45631;51.962;5.974;2023-02-12T01:03:36;103665.88;;;5.79;100.00
59757;BME280;45631;51.962;5.974;2023-02-12T01:06:04;103665.00;;;5.75;100.00
59757;BME280;45631;51.962;5.974;2023-02-12T01:08:34;103674.59;;;5.71;100.00
59757;BME280;45631;51.962;5.974;2023-02-12T01:11:04;103671.09;;;5.68;100.00
59757;BME280;45631;51.962;5.974;2023-02-12T01:13:33;103671.09;;;5.68;100.00
59757;BME280;45631;51.962;5.974;2023-02-12T01:16:03;103665.00;;;5.66;100.00
59757;BME280;45631;51.962;5.974;2023-02-12T01:18:32;103671.97;;;5.62;100.00
59757;BME280;45631;51.962;5.974;2023-02-12T01:21:00;103665.88;;;5.58;100.00
59757;BME280;45631;51.962;5.974;2023-02-12T01:23:28;103669.34;;;5.54;100.00
59757;BME280;45631;51.962;5.974;2023-02-12T01:25:58;103678.03;;;5.52;100.00
59757;BME280;45631;51.962;5.974;2023-02-12T01:28:27;103672.81;;;5.47;100.00
59757;BME280;45631;51.962;5.974;2023-02-12T01:30:55;103676.31;;;5.45;100.00
59757;BME280;45631;51.962;5.974;2023-02-12T01:33:23;103681.53;;;5.43;100.00
59757;BME280;45631;51.962;5.974;2023-02-12T01:35:51;103667.56;;;5.41;100.00
59757;BME280;45631;51.962;5.974;2023-02-12T01:38:20;103678.91;;;5.41;100.00
59757;BME280;45631;51.962;5.974;2023-02-12T01:40:48;103671.94;;;5.39;100.00
59757;BME280;45631;51.962;5.974;2023-02-12T01:43:17;103664.13;;;5.37;100.00
59757;BME280;45631;51.962;5.974;2023-02-12T01:45:48;103664.13;;;5.36;100.00
59757;BME280;45631;51.962;5.974;2023-02-12T01:48:22;103663.22;;;5.31;100.00
59757;BME280;45631;51.962;5.974;2023-02-12T01:50:52;103669.31;;;5.27;100.00
59757;BME280;45631;51.962;5.974;2023-02-12T01:53:27;103665.81;;;5.24;100.00
59757;BME280;45631;51.962;5.974;2023-02-12T01:55:58;103675.38;;;5.22;100.00
59757;BME280;45631;51.962;5.974;2023-02-12T01:58:31;103671.03;;;5.21;100.00
59757;BME280;45631;51.962;5.974;2023-02-12T02:01:02;103671.03;;;5.20;100.00
59757;BME280;45631;51.962;5.974;2023-02-12T02:03:33;103671.88;;;5.17;100.00
59757;BME280;45631;51.962;5.974;2023-02-12T02:06:06;103669.28;;;5.17;100.00
59757;BME280;45631;51.962;5.974;2023-02-12T02:08:37;103655.34;;;5.15;100.00
59757;BME280;45631;51.962;5.974;2023-02-12T02:11:05;103659.72;;;5.12;100.00
59757;BME280;45631;51.962;5.974;2023-02-12T02:13:49;103661.41;;;5.10;100.00
59757;BME280;45631;51.962;5.974;2023-02-12T02:16:35;103657.94;;;5.07;100.00
59757;BME280;45631;51.962;5.974;2023-02-12T02:19:09;103656.19;;;5.06;100.00
59757;BME280;45631;51.962;5.974;2023-02-12T02:22:10;103661.41;;;5.03;100.00
59757;BME280;45631;51.962;5.974;2023-02-12T02:25:05;103661.41;;;5.03;100.00
59757;BME280;45631;51.962;5.974;2023-02-12T02:27:48;103662.28;;;4.99;100.00
59757;BME280;45631;51.962;5.974;2023-02-12T02:30:37;103657.06;;;4.98;100.00
59757;BME280;45631;51.962;5.974;2023-02-12T02:33:24;103650.94;;;4.96;100.00
59757;BME280;45631;51.962;5.974;2023-02-12T02:36:05;103655.28;;;4.90;100.00
59757;BME280;45631;51.962;5.974;2023-02-12T02:38:41;103647.44;;;4.89;100.00
59757;BME280;45631;51.962;5.974;2023-02-12T02:41:16;103643.97;;;4.87;100.00
59757;BME280;45631;51.962;5.974;2023-02-12T02:43:49;103646.59;;;4.87;100.00
59757;BME280;45631;51.962;5.974;2023-02-12T02:46:25;103640.47;;;4.83;100.00
59757;BME280;45631;51.962;5.974;2023-02-12T02:48:57;103636.97;;;4.80;100.00
59757;BME280;45631;51.962;5.974;2023-02-12T02:51:28;103647.41;;;4.73;100.00
59757;BME280;45631;51.962;5.974;2023-02-12T02:54:02;103641.28;;;4.67;100.00
59757;BME280;45631;51.962;5.974;2023-02-12T02:56:37;103645.66;;;4.68;100.00
59757;BME280;45631;51.962;5.974;2023-02-12T02:59:09;103646.50;;;4.67;100.00
59757;BME280;45631;51.962;5.974;2023-02-12T03:01:43;103647.34;;;4.64;100.00
59757;BME280;45631;51.962;5.974;2023-02-12T03:04:17;103643.88;;;4.62;100.00
59757;BME280;45631;51.962;5.974;2023-02-12T03:06:51;103645.59;;;4.59;100.00
59757;BME280;45631;51.962;5.974;2023-02-12T03:09:25;103648.19;;;4.55;100.00
59757;BME280;45631;51.962;5.974;2023-02-12T03:11:59;103650.75;;;4.54;100.00
59757;BME280;45631;51.962;5.974;2023-02-12T03:14:31;103647.28;;;4.49;100.00
59757;BME280;45631;51.962;5.974;2023-02-12T03:17:04;103650.75;;;4.45;100.00
59757;BME280;45631;51.962;5.974;2023-02-12T03:19:36;103654.19;;;4.42;100.00
59757;BME280;45631;51.962;5.974;2023-02-12T03:22:08;103651.56;;;4.39;100.00
59757;BME280;45631;51.962;5.974;2023-02-12T03:24:40;103646.38;;;4.40;100.00
59757;BME280;45631;51.962;5.974;2023-02-12T03:27:13;103645.47;;;4.37;100.00
59757;BME280;45631;51.962;5.974;2023-02-12T03:29:44;103647.19;;;4.35;100.00
59757;BME280;45631;51.962;5.974;2023-02-12T03:32:26;103644.56;;;4.35;100.00
59757;BME280;45631;51.962;5.974;2023-02-12T03:35:07;103644.63;;;4.39;100.00
59757;BME280;45631;51.962;5.974;2023-02-12T03:37:39;103645.50;;;4.40;100.00
59757;BME280;45631;51.962;5.974;2023-02-12T03:40:14;103637.66;;;4.40;100.00
59757;BME280;45631;51.962;5.974;2023-02-12T03:42:47;103638.50;;;4.36;100.00
59757;BME280;45631;51.962;5.974;2023-02-12T03:48:09;103653.28;;;4.34;100.00
59757;BME280;45631;51.962;5.974;2023-02-12T03:50:43;103658.50;;;4.34;100.00
59757;BME280;45631;51.962;5.974;2023-02-12T03:53:13;103652.41;;;4.35;100.00
59757;BME280;45631;51.962;5.974;2023-02-12T03:55:42;103658.50;;;4.37;100.00
59757;BME280;45631;51.962;5.974;2023-02-12T03:58:16;103658.50;;;4.35;100.00
59757;BME280;45631;51.962;5.974;2023-02-12T04:00:46;103657.59;;;4.33;100.00
59757;BME280;45631;51.962;5.974;2023-02-12T04:03:16;103655.00;;;4.33;100.00
59757;BME280;45631;51.962;5.974;2023-02-12T04:05:44;103660.22;;;4.32;100.00
59757;BME280;45631;51.962;5.974;2023-02-12T04:08:12;103664.56;;;4.33;100.00
59757;BME280;45631;51.962;5.974;2023-02-12T04:10:52;103665.41;;;4.32;100.00
59757;BME280;45631;51.962;5.974;2023-02-12T04:13:28;103661.97;;;4.33;100.00
59757;BME280;45631;51.962;5.974;2023-02-12T04:16:12;103674.13;;;4.34;100.00
59757;BME280;45631;51.962;5.974;2023-02-12T04:18:47;103662.81;;;4.32;100.00
59757;BME280;45631;51.962;5.974;2023-02-12T04:21:22;103659.34;;;4.33;100.00
59757;BME280;45631;51.962;5.974;2023-02-12T04:24:03;103669.78;;;4.34;100.00
59757;BME280;45631;51.962;5.974;2023-02-12T04:26:38;103674.13;;;4.34;100.00
59757;BME280;45631;51.962;5.974;2023-02-12T04:29:16;103681.06;;;4.35;100.00
59757;BME280;45631;51.962;5.974;2023-02-12T04:31:49;103684.56;;;4.37;100.00
59757;BME280;45631;51.962;5.974;2023-02-12T04:34:25;103683.72;;;4.38;100.00
59757;BME280;45631;51.962;5.974;2023-02-12T04:37:04;103686.31;;;4.38;100.00
59757;BME280;45631;51.962;5.974;2023-02-12T04:39:36;103689.78;;;4.38;100.00
59757;BME280;45631;51.962;5.974;2023-02-12T04:42:05;103688.06;;;4.42;100.00
59757;BME280;45631;51.962;5.974;2023-02-12T04:44:37;103692.44;;;4.46;100.00
59757;BME280;45631;51.962;5.974;2023-02-12T04:47:06;103690.69;;;4.48;100.00
59757;BME280;45631;51.962;5.974;2023-02-12T04:49:35;103690.69;;;4.47;100.00
59757;BME280;45631;51.962;5.974;2023-02-12T04:52:03;103694.19;;;4.47;100.00
59757;BME280;45631;51.962;5.974;2023-02-12T04:54:32;103689.84;;;4.52;100.00
59757;BME280;45631;51.962;5.974;2023-02-12T04:57:03;103695.06;;;4.52;100.00
59757;BME280;45631;51.962;5.974;2023-02-12T04:59:31;103698.56;;;4.53;100.00
59757;BME280;45631;51.962;5.974;2023-02-12T05:01:59;103701.19;;;4.54;100.00
59757;BME280;45631;51.962;5.974;2023-02-12T05:04:27;103691.66;;;4.63;100.00
59757;BME280;45631;51.962;5.974;2023-02-12T05:06:59;103703.84;;;4.67;100.00
59757;BME280;45631;51.962;5.974;2023-02-12T05:09:28;103696.88;;;4.66;100.00
59757;BME280;45631;51.962;5.974;2023-02-12T05:11:58;103703.84;;;4.67;100.00
59757;BME280;45631;51.962;5.974;2023-02-12T05:14:27;103698.63;;;4.67;100.00
59757;BME280;45631;51.962;5.974;2023-02-12T05:16:55;103701.25;;;4.67;100.00
59757;BME280;45631;51.962;5.974;2023-02-12T05:19:23;103694.28;;;4.67;100.00
59757;BME280;45631;51.962;5.974;2023-02-12T05:21:51;103694.28;;;4.67;100.00
59757;BME280;45631;51.962;5.974;2023-02-12T05:24:21;103699.50;;;4.69;100.00
59757;BME280;45631;51.962;5.974;2023-02-12T05:26:49;103703.00;;;4.71;100.00
59757;BME280;45631;51.962;5.974;2023-02-12T05:29:17;103698.66;;;4.71;100.00
59757;BME280;45631;51.962;5.974;2023-02-12T05:31:45;103696.94;;;4.72;100.00
59757;BME280;45631;51.962;5.974;2023-02-12T05:34:14;103697.78;;;4.72;100.00
59757;BME280;45631;51.962;5.974;2023-02-12T05:36:42;103702.16;;;4.75;100.00
59757;BME280;45631;51.962;5.974;2023-02-12T05:39:13;103698.69;;;4.76;100.00
59757;BME280;45631;51.962;5.974;2023-02-12T05:41:42;103702.16;;;4.78;100.00
59757;BME280;45631;51.962;5.974;2023-02-12T05:44:10;103702.16;;;4.80;100.00
59757;BME280;45631;51.962;5.974;2023-02-12T05:46:41;103703.06;;;4.86;100.00
59757;BME280;45631;51.962;5.974;2023-02-12T05:49:09;103705.72;;;4.93;100.00
59757;BME280;45631;51.962;5.974;2023-02-12T05:51:38;103708.31;;;4.89;100.00
59757;BME280;45631;51.962;5.974;2023-02-12T05:54:06;103708.31;;;4.93;100.00
59757;BME280;45631;51.962;5.974;2023-02-12T05:56:36;103705.72;;;4.91;100.00
59757;BME280;45631;51.962;5.974;2023-02-12T05:59:07;103701.34;;;4.90;100.00
59757;BME280;45631;51.962;5.974;2023-02-12T06:01:39;103707.44;;;4.90;100.00
59757;BME280;45631;51.962;5.974;2023-02-12T06:04:13;103705.72;;;4.91;100.00
59757;BME280;45631;51.962;5.974;2023-02-12T06:06:41;103712.66;;;4.90;100.00
59757;BME280;45631;51.962;5.974;2023-02-12T06:09:10;103705.72;;;4.91;100.00
59757;BME280;45631;51.962;5.974;2023-02-12T06:11:39;103706.56;;;4.91;100.00
59757;BME280;45631;51.962;5.974;2023-02-12T06:14:12;103704.81;;;4.92;100.00
59757;BME280;45631;51.962;5.974;2023-02-12T06:16:43;103707.47;;;4.94;100.00
59757;BME280;45631;51.962;5.974;2023-02-12T06:19:12;103715.31;;;4.94;100.00
59757;BME280;45631;51.962;5.974;2023-02-12T06:21:40;103715.31;;;4.94;100.00
59757;BME280;45631;51.962;5.974;2023-02-12T06:24:09;103710.09;;;4.95;100.00
59757;BME280;45631;51.962;5.974;2023-02-12T06:26:37;103717.91;;;5.00;100.00
59757;BME280;45631;51.962;5.974;2023-02-12T06:29:06;103720.53;;;5.04;100.00
59757;BME280;45631;51.962;5.974;2023-02-12T06:31:38;103717.06;;;5.04;100.00
59757;BME280;45631;51.962;5.974;2023-02-12T06:34:08;103717.06;;;5.02;100.00
59757;BME280;45631;51.962;5.974;2023-02-12T06:36:39;103724.03;;;5.02;100.00
59757;BME280;45631;51.962;5.974;2023-02-12T06:39:07;103721.38;;;4.99;100.00
59757;BME280;45631;51.962;5.974;2023-02-12T06:41:36;103729.22;;;5.00;100.00
59757;BME280;45631;51.962;5.974;2023-02-12T06:44:04;103723.13;;;5.00;100.00
59757;BME280;45631;51.962;5.974;2023-02-12T06:46:33;103718.78;;;4.99;100.00
59757;BME280;45631;51.962;5.974;2023-02-12T06:49:03;103724.03;;;5.03;100.00
59757;BME280;45631;51.962;5.974;2023-02-12T06:51:31;103725.75;;;5.03;100.00
59757;BME280;45631;51.962;5.974;2023-02-12T06:53:59;103730.09;;;5.04;100.00
59757;BME280;45631;51.962;5.974;2023-02-12T06:56:29;103731.84;;;5.06;100.00
59757;BME280;45631;51.962;5.974;2023-02-12T06:58:58;103735.31;;;5.07;100.00
59757;BME280;45631;51.962;5.974;2023-02-12T07:01:28;103737.06;;;5.06;100.00
59757;BME280;45631;51.962;5.974;2023-02-12T07:03:58;103731.00;;;5.07;100.00
59757;BME280;45631;51.962;5.974;2023-02-12T07:06:29;103737.06;;;5.08;100.00
59757;BME280;45631;51.962;5.974;2023-02-12T07:08:58;103746.66;;;5.09;100.00
59757;BME280;45631;51.962;5.974;2023-02-12T07:11:28;103749.25;;;5.09;100.00
59757;BME280;45631;51.962;5.974;2023-02-12T07:13:57;103744.03;;;5.09;100.00
59757;BME280;45631;51.962;5.974;2023-02-12T07:16:25;103744.03;;;5.09;100.00
59757;BME280;45631;51.962;5.974;2023-02-12T07:18:54;103745.78;;;5.08;100.00
59757;BME280;45631;51.962;5.974;2023-02-12T07:21:22;103752.72;;;5.08;100.00
59757;BME280;45631;51.962;5.974;2023-02-12T07:23:52;103745.78;;;5.08;100.00
59757;BME280;45631;51.962;5.974;2023-02-12T07:26:21;103751.88;;;5.11;100.00
59757;BME280;45631;51.962;5.974;2023-02-12T07:28:50;103757.94;;;5.11;100.00
59757;BME280;45631;51.962;5.974;2023-02-12T07:31:20;103752.78;;;5.13;100.00
59757;BME280;45631;51.962;5.974;2023-02-12T07:33:52;103762.31;;;5.11;100.00
59757;BME280;45631;51.962;5.974;2023-02-12T07:36:21;103761.47;;;5.16;100.00
59757;BME280;45631;51.962;5.974;2023-02-12T07:38:49;103759.75;;;5.18;100.00
59757;BME280;45631;51.962;5.974;2023-02-12T07:41:21;103764.09;;;5.21;100.00
59757;BME280;45631;51.962;5.974;2023-02-12T07:43:53;103770.22;;;5.28;100.00
59757;BME280;45631;51.962;5.974;2023-02-12T07:46:23;103769.34;;;5.29;100.00
59757;BME280;45631;51.962;5.974;2023-02-12T07:48:56;103766.72;;;5.29;100.00
59757;BME280;45631;51.962;5.974;2023-02-12T07:51:25;103764.13;;;5.30;100.00
59757;BME280;45631;51.962;5.974;2023-02-12T07:53:54;103768.47;;;5.31;100.00
59757;BME280;45631;51.962;5.974;2023-02-12T07:56:25;103776.31;;;5.33;100.00
59757;BME280;45631;51.962;5.974;2023-02-12T07:58:57;103771.97;;;5.35;100.00
59757;BME280;45631;51.962;5.974;2023-02-12T08:01:27;103774.59;;;5.35;100.00
59757;BME280;45631;51.962;5.974;2023-02-12T08:03:58;103774.59;;;5.38;100.00
59757;BME280;45631;51.962;5.974;2023-02-12T08:06:29;103776.34;;;5.40;100.00
59757;BME280;45631;51.962;5.974;2023-02-12T08:08:59;103778.09;;;5.43;100.00
59757;BME280;45631;51.962;5.974;2023-02-12T08:11:29;103783.31;;;5.48;100.00
59757;BME280;45631;51.962;5.974;2023-02-12T08:13:59;103786.81;;;5.51;100.00
59757;BME280;45631;51.962;5.974;2023-02-12T08:16:29;103788.59;;;5.52;100.00
59757;BME280;45631;51.962;5.974;2023-02-12T08:18:57;103791.19;;;5.54;100.00
59757;BME280;45631;51.962;5.974;2023-02-12T08:21:42;103792.09;;;5.59;100.00
59757;BME280;45631;51.962;5.974;2023-02-12T08:24:11;103785.09;;;5.64;100.00
59757;BME280;45631;51.962;5.974;2023-02-12T08:26:40;103786.84;;;5.67;100.00
59757;BME280;45631;51.962;5.974;2023-02-12T08:29:14;103792.09;;;5.68;100.00
59757;BME280;45631;51.962;5.974;2023-02-12T08:31:45;103798.19;;;5.73;100.00
59757;BME280;45631;51.962;5.974;2023-02-12T08:34:16;103795.59;;;5.76;100.00
59757;BME280;45631;51.962;5.974;2023-02-12T08:36:46;103797.34;;;5.79;100.00
59757;BME280;45631;51.962;5.974;2023-02-12T08:39:15;103798.22;;;5.81;100.00
59757;BME280;45631;51.962;5.974;2023-02-12T08:41:45;103805.19;;;5.84;100.00
59757;BME280;45631;51.962;5.974;2023-02-12T08:44:14;103809.56;;;5.86;100.00
59757;BME280;45631;51.962;5.974;2023-02-12T08:46:44;103809.56;;;5.91;100.00
59757;BME280;45631;51.962;5.974;2023-02-12T08:49:15;103809.56;;;5.94;100.00
59757;BME280;45631;51.962;5.974;2023-02-12T08:51:46;103822.63;;;5.96;100.00
59757;BME280;45631;51.962;5.974;2023-02-12T08:54:16;103807.84;;;5.99;100.00
59757;BME280;45631;51.962;5.974;2023-02-12T08:56:46;103820.06;;;6.03;100.00
59757;BME280;45631;51.962;5.974;2023-02-12T08:59:15;103827.03;;;6.09;100.00
59757;BME280;45631;51.962;5.974;2023-02-12T09:01:43;103827.91;;;6.11;100.00
59757;BME280;45631;51.962;5.974;2023-02-12T09:04:14;103821.81;;;6.15;100.00
59757;BME280;45631;51.962;5.974;2023-02-12T09:06:44;103831.41;;;6.19;100.00
59757;BME280;45631;51.962;5.974;2023-02-12T09:09:13;103828.78;;;6.22;100.00
59757;BME280;45631;51.962;5.974;2023-02-12T09:11:42;103833.16;;;6.25;100.00
59757;BME280;45631;51.962;5.974;2023-02-12T09:14:14;103835.75;;;6.31;100.00
59757;BME280;45631;51.962;5.974;2023-02-12T09:16:43;103822.72;;;6.33;100.00
59757;BME280;45631;51.962;5.974;2023-02-12T09:19:12;103829.69;;;6.37;100.00
59757;BME280;45631;51.962;5.974;2023-02-12T09:21:41;103838.38;;;6.40;100.00
59757;BME280;45631;51.962;5.974;2023-02-12T09:24:09;103835.75;;;6.42;100.00
59757;BME280;45631;51.962;5.974;2023-02-12T09:26:38;103838.41;;;6.45;100.00
59757;BME280;45631;51.962;5.974;2023-02-12T09:29:08;103835.78;;;6.48;100.00
59757;BME280;45631;51.962;5.974;2023-02-12T09:31:38;103832.28;;;6.49;100.00
59757;BME280;45631;51.962;5.974;2023-02-12T09:34:06;103838.38;;;6.53;100.00
59757;BME280;45631;51.962;5.974;2023-02-12T09:36:35;103837.50;;;6.58;100.00
59757;BME280;45631;51.962;5.974;2023-02-12T09:39:03;103840.13;;;6.62;100.00
59757;BME280;45631;51.962;5.974;2023-02-12T09:44:35;103839.25;;;6.76;100.00
59757;BME280;45631;51.962;5.974;2023-02-12T09:47:12;103838.34;;;6.76;100.00
59757;BME280;45631;51.962;5.974;2023-02-12T09:49:57;103834.88;;;6.74;100.00
59757;BME280;45631;51.962;5.974;2023-02-12T09:52:30;103839.25;;;6.76;100.00
59757;BME280;45631;51.962;5.974;2023-02-12T09:54:58;103836.63;;;6.75;100.00
59757;BME280;45631;51.962;5.974;2023-02-12T09:57:29;103838.34;;;6.76;100.00
59757;BME280;45631;51.962;5.974;2023-02-12T10:00:03;103839.22;;;6.80;100.00
59757;BME280;45631;51.962;5.974;2023-02-12T10:02:35;103840.13;;;6.83;100.00
59757;BME280;45631;51.962;5.974;2023-02-12T10:05:05;103833.97;;;6.84;100.00
59757;BME280;45631;51.962;5.974;2023-02-12T10:07:57;103837.47;;;6.88;100.00
59757;BME280;45631;51.962;5.974;2023-02-12T10:10:43;103838.34;;;6.91;100.00
59757;BME280;45631;51.962;5.974;2023-02-12T10:13:21;103846.19;;;6.96;100.00
59757;BME280;45631;51.962;5.974;2023-02-12T10:15:58;103840.06;;;7.00;100.00
59757;BME280;45631;51.962;5.974;2023-02-12T10:18:53;103836.56;;;7.03;100.00
59757;BME280;45631;51.962;5.974;2023-02-12T10:21:36;103845.28;;;7.08;100.00
59757;BME280;45631;51.962;5.974;2023-02-12T10:24:28;103836.56;;;7.12;100.00
59757;BME280;45631;51.962;5.974;2023-02-12T10:27:06;103839.16;;;7.17;100.00
59757;BME280;45631;51.962;5.974;2023-02-12T10:29:39;103844.38;;;7.20;100.00
59757;BME280;45631;51.962;5.974;2023-02-12T10:32:14;103835.66;;;7.19;100.00
59757;BME280;45631;51.962;5.974;2023-02-12T10:34:47;103832.16;;;7.23;100.00
59757;BME280;45631;51.962;5.974;2023-02-12T10:37:27;103839.09;;;7.29;100.00
59757;BME280;45631;51.962;5.974;2023-02-12T10:40:03;103832.13;;;7.31;100.00
59757;BME280;45631;51.962;5.974;2023-02-12T10:42:37;103839.09;;;7.34;100.00
59757;BME280;45631;51.962;5.974;2023-02-12T10:45:11;103842.56;;;7.40;100.00
59757;BME280;45631;51.962;5.974;2023-02-12T10:47:40;103846.06;;;7.39;100.00
59757;BME280;45631;51.962;5.974;2023-02-12T10:50:19;103835.56;;;7.41;100.00
59757;BME280;45631;51.962;5.974;2023-02-12T10:52:53;103837.28;;;7.47;100.00
59757;BME280;45631;51.962;5.974;2023-02-12T10:55:25;103840.78;;;7.52;100.00
59757;BME280;45631;51.962;5.974;2023-02-12T10:57:55;103838.13;;;7.56;100.00
59757;BME280;45631;51.962;5.974;2023-02-12T11:00:28;103840.72;;;7.58;100.00
59757;BME280;45631;51.962;5.974;2023-02-12T11:03:02;103838.97;;;7.61;100.00
59757;BME280;45631;51.962;5.974;2023-02-12T11:05:34;103845.97;;;7.63;100.00
59757;BME280;45631;51.962;5.974;2023-02-12T11:08:03;103845.94;;;7.64;100.00
59757;BME280;45631;51.962;5.974;2023-02-12T11:10:37;103833.69;;;7.66;100.00
59757;BME280;45631;51.962;5.974;2023-02-12T11:13:21;103835.44;;;7.72;100.00
59757;BME280;45631;51.962;5.974;2023-02-12T11:15:50;103831.06;;;7.74;100.00
59757;BME280;45631;51.962;5.974;2023-02-12T11:18:21;103831.03;;;7.80;100.00
59757;BME280;45631;51.962;5.974;2023-02-12T11:20:55;103834.47;;;7.84;100.00
59757;BME280;45631;51.962;5.974;2023-02-12T11:23:26;103829.22;;;7.85;100.00
59757;BME280;45631;51.962;5.974;2023-02-12T11:26:01;103830.06;;;7.90;100.00
59757;BME280;45631;51.962;5.974;2023-02-12T11:28:32;103827.47;;;7.89;100.00
59757;BME280;45631;51.962;5.974;2023-02-12T11:31:02;103833.53;;;7.97;100.00
59757;BME280;45631;51.962;5.974;2023-02-12T11:33:32;103830.00;;;8.03;100.00
59757;BME280;45631;51.962;5.974;2023-02-12T11:36:04;103820.38;;;8.06;100.00
59757;BME280;45631;51.962;5.974;2023-02-12T11:38:48;103814.22;;;8.10;100.00
59757;BME280;45631;51.962;5.974;2023-02-12T11:41:22;103811.56;;;8.17;100.00
59757;BME280;45631;51.962;5.974;2023-02-12T11:43:51;103811.53;;;8.21;100.00
59757;BME280;45631;51.962;5.974;2023-02-12T11:46:22;103809.75;;;8.25;100.00
59757;BME280;45631;51.962;5.974;2023-02-12T11:48:53;103802.72;;;8.28;100.00
59757;BME280;45631;51.962;5.974;2023-02-12T11:51:26;103800.06;;;8.33;100.00
59757;BME280;45631;51.962;5.974;2023-02-12T11:53:58;103799.97;;;8.41;100.00
59757;BME280;45631;51.962;5.974;2023-02-12T11:56:40;103796.47;;;8.45;100.00
59757;BME280;45631;51.962;5.974;2023-02-12T11:59:16;103800.81;;;8.52;100.00
59757;BME280;45631;51.962;5.974;2023-02-12T12:01:46;103797.31;;;8.50;100.00
59757;BME280;45631;51.962;5.974;2023-02-12T12:04:16;103792.88;;;8.58;100.00
59757;BME280;45631;51.962;5.974;2023-02-12T12:06:50;103791.94;;;8.62;100.00
59757;BME280;45631;51.962;5.974;2023-02-12T12:09:23;103791.03;;;8.67;100.00
59757;BME280;45631;51.962;5.974;2023-02-12T12:11:57;103787.47;;;8.72;100.00
59757;BME280;45631;51.962;5.974;2023-02-12T12:14:30;103788.31;;;8.76;100.00
59757;BME280;45631;51.962;5.974;2023-02-12T12:17:02;103785.72;;;8.74;100.00
59757;BME280;45631;51.962;5.974;2023-02-12T12:19:55;103787.47;;;8.75;100.00
59757;BME280;45631;51.962;5.974;2023-02-12T12:22:35;103784.75;;;8.82;100.00
59757;BME280;45631;51.962;5.974;2023-02-12T12:25:12;103771.56;;;8.89;100.00
59757;BME280;45631;51.962;5.974;2023-02-12T12:27:54;103770.63;;;8.93;100.00
59757;BME280;45631;51.962;5.974;2023-02-12T12:30:53;103772.38;;;8.91;100.00
59757;BME280;45631;51.962;5.974;2023-02-12T12:33:40;103767.03;;;9.01;100.00
59757;BME280;45631;51.962;5.974;2023-02-12T12:36:53;103770.50;;;9.04;100.00
59757;BME280;45631;51.962;5.974;2023-02-12T12:39:33;103762.56;;;9.09;100.00
59757;BME280;45631;51.962;5.974;2023-02-12T12:42:33;103766.84;;;9.16;100.00
59757;BME280;45631;51.962;5.974;2023-02-12T12:45:22;103758.97;;;9.18;100.00
59757;BME280;45631;51.962;5.974;2023-02-12T12:48:06;103751.00;;;9.24;100.00
59757;BME280;45631;51.962;5.974;2023-02-12T12:50:56;103755.38;;;9.23;100.00
59757;BME280;45631;51.962;5.974;2023-02-12T12:53:37;103747.41;;;9.29;100.00
59757;BME280;45631;51.962;5.974;2023-02-12T12:56:31;103754.53;;;9.21;100.00
59757;BME280;45631;51.962;5.974;2023-02-12T12:59:32;103754.44;;;9.29;100.00
59757;BME280;45631;51.962;5.974;2023-02-12T13:02:35;103755.28;;;9.29;100.00
59757;BME280;45631;51.962;5.974;2023-02-12T13:05:20;103749.09;;;9.34;100.00
59757;BME280;45631;51.962;5.974;2023-02-12T13:08:02;103746.53;;;9.30;100.00
59757;BME280;45631;51.962;5.974;2023-02-12T13:10:40;103739.44;;;9.37;100.00
59757;BME280;45631;51.962;5.974;2023-02-12T13:13:15;103741.19;;;9.38;100.00
59757;BME280;45631;51.962;5.974;2023-02-12T13:15:53;103736.91;;;9.29;100.00
59757;BME280;45631;51.962;5.974;2023-02-12T13:18:34;103729.00;;;9.31;100.00
59757;BME280;45631;51.962;5.974;2023-02-12T13:21:12;103731.63;;;9.33;100.00
59757;BME280;45631;51.962;5.974;2023-02-12T13:23:45;103734.19;;;9.37;100.00
59757;BME280;45631;51.962;5.974;2023-02-12T13:26:23;103739.41;;;9.39;100.00